Terminal Aerodrome Forecast
Issued by NWS

Home | Current Version | Previous Version | Text Only | Print | Product List | Glossary On
Versions: 1 2 3 4 5 6 7 8 9 10 11 12 13 14 15 16 17 18 19 20 21
000
FTUS45 KTFX 262300
TAFCTB
TAF
KCTB 262340Z 2700/2724 21008KT P6SM SKC
     FM270600 25008G18KT P6SM SCT080 BKN140
     FM271200 26010G20KT P6SM SCT060 BKN100
     FM271800 23011KT P6SM VCSH SCT040 OVC070=

USA.gov is the U.S. government's official web portal to all federal, state and local government web resources and services.